Time;durP1;ratioP1;P1;durP2;ratioP2;P2;SDS_P1;SDS_P2;PMS_P1;PMS_P2;Temp;Humidity;BMP_temperature;BMP_pressure;BME280_temperature;BME280_humidity;BME280_pressure;Samples;Min_cycle;Max_cycle;Signal;HPM_P1;HPM_P2
2023/01/12 00:01:20;;;;;;;;;;;;;;;21.06;32.84;101433.52;105350;1292;73059;-84
2023/01/12 00:03:46;;;;;;;;;;;;;;;21.06;32.84;101434.42;105241;1296;61297;-82
2023/01/12 00:06:11;;;;;;;;;;;;;;;21.06;32.92;101427.10;105374;1291;61262;-82
2023/01/12 00:08:37;;;;;;;;;;;;;;;21.06;32.91;101429.42;105399;1291;61235;-82
2023/01/12 00:11:02;;;;;;;;;;;;;;;21.06;32.83;101418.34;105443;1291;61414;-83
2023/01/12 00:13:28;;;;;;;;;;;;;;;21.06;32.94;101412.27;105215;1291;73279;-83
2023/01/12 00:18:42;;;;;;;;;;;;;;;21.06;32.74;101416.53;105263;1291;61620;-83
2023/01/12 00:21:08;;;;;;;;;;;;;;;21.06;32.61;101422.81;105403;1291;61385;-82
2023/01/12 00:23:35;;;;;;;;;;;;;;;21.06;32.79;101436.23;105386;1291;61305;-82
2023/01/12 00:26:02;;;;;;;;;;;;;;;21.06;32.82;101451.80;105200;1291;61285;-83
2023/01/12 00:28:28;;;;;;;;;;;;;;;21.06;32.71;101449.82;105202;1291;61609;-83
2023/01/12 00:31:06;;;;;;;;;;;;;;;21.06;32.67;101451.77;105235;1291;60032;-83
2023/01/12 00:33:33;;;;;;;;;;;;;;;21.07;32.61;101450.16;105285;1291;73374;-83
2023/01/12 00:36:06;;;;;;;;;;;;;;;21.07;32.71;101455.34;105188;1291;74281;-83
2023/01/12 00:38:33;;;;;;;;;;;;;;;21.07;32.52;101462.32;105546;1285;61159;-83
2023/01/12 00:41:03;;;;;;;;;;;;;;;21.07;32.63;101466.06;106001;1285;61263;-83
2023/01/12 00:46:13;;;;;;;;;;;;;;;21.07;32.58;101465.51;105896;1285;75444;-83
2023/01/12 00:48:38;;;;;;;;;;;;;;;21.07;32.64;101463.91;105907;1285;61272;-83
2023/01/12 00:51:04;;;;;;;;;;;;;;;21.06;32.63;101462.15;106021;1285;61276;-83
2023/01/12 00:53:30;;;;;;;;;;;;;;;21.06;32.53;101459.64;105978;1285;60083;-83
2023/01/12 00:56:04;;;;;;;;;;;;;;;21.07;32.59;101454.98;105873;1285;61264;-83
2023/01/12 00:58:30;;;;;;;;;;;;;;;21.07;32.58;101443.33;105687;1287;61422;-83
2023/01/12 01:01:05;;;;;;;;;;;;;;;21.07;32.51;101436.36;105577;1288;61349;-83
2023/01/12 01:03:31;;;;;;;;;;;;;;;21.07;32.56;101429.18;105393;1290;71675;-83
2023/01/12 01:06:02;;;;;;;;;;;;;;;21.07;32.55;101429.37;105467;1288;61508;-83
2023/01/12 01:08:29;;;;;;;;;;;;;;;21.06;32.55;101437.82;105644;1287;61543;-83
2023/01/12 01:11:01;;;;;;;;;;;;;;;21.07;32.47;101435.11;105494;1288;61243;-83
2023/01/12 01:13:29;;;;;;;;;;;;;;;21.07;32.48;101430.80;105658;1292;72507;-83
2023/01/12 01:15:57;;;;;;;;;;;;;;;21.07;32.59;101433.86;105488;1288;73548;-83
2023/01/12 01:18:23;;;;;;;;;;;;;;;21.07;32.37;101453.34;105500;1288;61325;-83
2023/01/12 01:20:48;;;;;;;;;;;;;;;21.07;32.34;101464.64;105523;1288;61293;-83
2023/01/12 01:23:14;;;;;;;;;;;;;;;21.07;32.45;101467.69;105499;1288;61385;-83
2023/01/12 01:25:40;;;;;;;;;;;;;;;21.07;32.28;101472.34;105593;1288;61338;-83
2023/01/12 01:28:06;;;;;;;;;;;;;;;21.07;32.42;101475.73;105548;1287;61264;-83
2023/01/12 01:30:32;;;;;;;;;;;;;;;21.07;32.45;101475.19;105898;1284;61278;-83
2023/01/12 01:32:57;;;;;;;;;;;;;;;21.07;32.39;101472.34;106001;1285;61820;-83
2023/01/12 01:35:23;;;;;;;;;;;;;;;21.07;32.35;101468.55;105911;1285;61347;-83
2023/01/12 01:37:49;;;;;;;;;;;;;;;21.08;32.38;101466.20;105897;1285;61288;-83
2023/01/12 01:40:14;;;;;;;;;;;;;;;21.08;32.39;101461.02;105936;1285;61312;-83
2023/01/12 01:42:40;;;;;;;;;;;;;;;21.07;32.41;101459.62;105982;1285;61250;-83
2023/01/12 01:45:06;;;;;;;;;;;;;;;21.08;32.30;101461.19;105885;1285;61275;-83
2023/01/12 01:47:33;;;;;;;;;;;;;;;21.08;32.23;101455.83;105705;1286;73480;-83
2023/01/12 01:49:59;;;;;;;;;;;;;;;21.08;32.32;101449.91;105684;1291;74318;-84
2023/01/12 01:52:28;;;;;;;;;;;;;;;21.08;32.39;101449.91;105860;1286;61435;-84
2023/01/12 01:54:54;;;;;;;;;;;;;;;21.08;32.22;101455.83;105678;1289;61117;-83
2023/01/12 01:57:21;;;;;;;;;;;;;;;21.08;32.20;101457.23;105680;1286;72451;-84
2023/01/12 01:59:48;;;;;;;;;;;;;;;21.08;32.12;101457.60;105698;1286;75464;-83
2023/01/12 02:02:14;;;;;;;;;;;;;;;21.08;32.30;101460.98;105867;1286;61324;-83
2023/01/12 02:04:39;;;;;;;;;;;;;;;21.09;32.20;101457.73;105703;1286;61304;-83
2023/01/12 02:07:05;;;;;;;;;;;;;;;21.08;32.23;101457.96;105578;1286;61317;-83
2023/01/12 02:09:31;;;;;;;;;;;;;;;21.08;32.26;101460.63;105735;1286;61250;-83
2023/01/12 02:17:40;;;;;;;;;;;;;;;21.08;32.34;101448.61;105858;1286;74058;-83
2023/01/12 02:20:09;;;;;;;;;;;;;;;21.08;32.20;101441.99;105929;1285;75451;-83
2023/01/12 02:23:01;;;;;;;;;;;;;;;21.08;31.99;101439.67;106021;1285;61258;-83
2023/01/12 02:25:45;;;;;;;;;;;;;;;21.08;32.12;101440.94;105423;1291;60959;-83
2023/01/12 02:28:11;;;;;;;;;;;;;;;21.09;32.09;101444.26;105413;1290;71569;-83
2023/01/12 02:30:58;;;;;;;;;;;;;;;21.09;32.11;101447.67;105415;1291;61231;-84
2023/01/12 02:33:24;;;;;;;;;;;;;;;21.09;32.13;101439.63;105417;1291;61124;-83
2023/01/12 02:35:52;;;;;;;;;;;;;;;21.09;32.08;101434.79;105438;1291;61288;-83
2023/01/12 02:38:36;;;;;;;;;;;;;;;21.09;32.20;101433.34;105407;1295;73815;-83
2023/01/12 02:41:02;;;;;;;;;;;;;;;21.09;32.13;101431.18;105395;1291;74660;-83
2023/01/12 02:43:28;;;;;;;;;;;;;;;21.09;32.16;101434.25;105430;1291;61449;-83
2023/01/12 02:45:57;;;;;;;;;;;;;;;21.09;32.17;101439.08;105241;1291;61568;-83
2023/01/12 02:48:30;;;;;;;;;;;;;;;21.09;32.05;101430.65;105424;1290;71383;-83
2023/01/12 02:50:58;;;;;;;;;;;;;;;21.10;32.10;101420.25;105159;1291;74496;-83
2023/01/12 02:53:43;;;;;;;;;;;;;;;21.10;32.01;101410.75;105410;1291;60989;-83
2023/01/12 02:56:12;;;;;;;;;;;;;;;21.10;31.91;101409.31;105236;1291;61384;-83
2023/01/12 02:58:39;;;;;;;;;;;;;;;21.10;31.92;101409.30;105389;1290;73381;-83
2023/01/12 03:01:05;;;;;;;;;;;;;;;21.10;31.90;101418.63;105275;1291;73620;-83
2023/01/12 03:03:30;;;;;;;;;;;;;;;21.10;31.95;101417.73;105775;1285;61279;-83
2023/01/12 03:05:59;;;;;;;;;;;;;;;21.10;32.06;101414.13;105893;1285;61238;-83
2023/01/12 03:08:27;;;;;;;;;;;;;;;21.11;31.93;101412.70;105883;1285;72542;-83
2023/01/12 03:11:02;;;;;;;;;;;;;;;21.11;31.82;101416.28;105955;1284;74582;-83
2023/01/12 03:13:28;;;;;;;;;;;;;;;21.11;32.02;101415.91;105983;1285;61291;-83
2023/01/12 03:15:55;;;;;;;;;;;;;;;21.11;31.90;101416.28;105879;1285;61218;-83
2023/01/12 03:18:32;;;;;;;;;;;;;;;21.11;31.78;101412.15;105890;1285;73905;-83
2023/01/12 03:21:00;;;;;;;;;;;;;;;21.11;31.69;101407.67;105892;1284;75505;-83
2023/01/12 03:23:27;;;;;;;;;;;;;;;21.11;31.92;101402.67;105860;1285;61302;-83
2023/01/12 03:25:53;;;;;;;;;;;;;;;21.10;31.83;101400.89;105938;1284;60190;-83
2023/01/12 03:28:19;;;;;;;;;;;;;;;21.11;31.75;101398.92;105977;1285;61126;-83
2023/01/12 03:30:47;;;;;;;;;;;;;;;21.11;31.68;101387.81;105917;1285;61240;-83
2023/01/12 03:33:15;;;;;;;;;;;;;;;21.12;31.75;101378.45;105882;1285;61137;-83
2023/01/12 03:35:43;;;;;;;;;;;;;;;21.11;31.78;101385.46;105855;1284;61376;-84
2023/01/12 03:38:33;;;;;;;;;;;;;;;21.12;31.84;101392.08;105727;1285;73500;-83
2023/01/12 03:41:02;;;;;;;;;;;;;;;21.11;31.78;101392.62;105430;1290;73740;-83
2023/01/12 03:43:30;;;;;;;;;;;;;;;21.12;31.86;101395.61;105273;1291;61338;-83
2023/01/12 03:45:57;;;;;;;;;;;;;;;21.12;31.82;101401.69;105241;1291;61175;-83
2023/01/12 03:48:28;;;;;;;;;;;;;;;21.12;31.86;101399.57;105399;1290;72498;-83
2023/01/12 03:50:56;;;;;;;;;;;;;;;21.12;31.72;101402.25;105393;1291;74536;-83
2023/01/12 03:53:22;;;;;;;;;;;;;;;21.12;31.66;101408.69;105404;1291;61305;-84
2023/01/12 03:55:48;;;;;;;;;;;;;;;21.12;31.86;101404.04;105411;1290;61394;-83
2023/01/12 03:58:14;;;;;;;;;;;;;;;21.12;31.93;101404.73;105340;1290;61469;-83
2023/01/12 04:00:40;;;;;;;;;;;;;;;21.13;31.85;101403.29;105226;1291;59968;-83
2023/01/12 04:03:09;;;;;;;;;;;;;;;21.12;31.82;101400.81;105220;1291;61270;-84
2023/01/12 04:05:34;;;;;;;;;;;;;;;21.12;31.82;101399.71;105382;1290;61209;-83
2023/01/12 04:08:00;;;;;;;;;;;;;;;21.12;31.74;101396.30;105138;1290;61424;-83
2023/01/12 04:10:26;;;;;;;;;;;;;;;21.12;31.83;101393.81;105212;1292;61176;-83
2023/01/12 04:12:52;;;;;;;;;;;;;;;21.13;31.70;101399.52;105226;1291;61390;-84
2023/01/12 04:15:18;;;;;;;;;;;;;;;21.12;31.69;101397.38;105185;1291;61284;-84
2023/01/12 04:17:43;;;;;;;;;;;;;;;21.13;31.81;101398.61;105357;1285;61316;-83
2023/01/12 04:20:09;;;;;;;;;;;;;;;21.13;31.78;101397.19;105968;1285;72581;-83
2023/01/12 04:22:44;;;;;;;;;;;;;;;21.13;31.70;101389.68;105969;1285;61318;-83
2023/01/12 04:25:10;;;;;;;;;;;;;;;21.13;31.62;101390.58;105918;1285;61276;-83
2023/01/12 04:27:36;;;;;;;;;;;;;;;21.12;31.75;101388.25;106010;1285;59267;-84
2023/01/12 04:30:02;;;;;;;;;;;;;;;21.13;31.56;101390.38;105911;1285;61900;-83
2023/01/12 04:32:27;;;;;;;;;;;;;;;21.13;31.50;101396.30;105907;1285;61271;-83
2023/01/12 04:34:53;;;;;;;;;;;;;;;21.12;31.65;101396.31;105854;1285;61286;-83
2023/01/12 04:37:19;;;;;;;;;;;;;;;21.13;31.59;101394.52;105843;1285;61234;-83
2023/01/12 04:39:44;;;;;;;;;;;;;;;21.13;31.76;101392.17;105942;1285;61267;-83
2023/01/12 04:42:59;;;;;;;;;;;;;;;21.13;31.77;101394.48;105880;1289;61305;-83
2023/01/12 04:44:55;;;;;;;;;;;;;;;21.13;31.65;101400.56;105900;1285;74421;-83
2023/01/12 04:47:21;;;;;;;;;;;;;;;21.14;31.73;101399.45;105913;1285;61299;-83
2023/01/12 04:49:46;;;;;;;;;;;;;;;21.13;31.72;101404.84;106018;1284;61283;-83
2023/01/12 04:52:12;;;;;;;;;;;;;;;21.14;31.66;101415.21;105882;1284;61260;-83
2023/01/12 04:54:38;;;;;;;;;;;;;;;21.13;31.68;101412.59;105995;1285;61285;-83
2023/01/12 04:57:03;;;;;;;;;;;;;;;21.11;31.55;101405.88;106039;1284;61370;-83
2023/01/12 04:59:29;;;;;;;;;;;;;;;21.10;31.38;101406.30;105917;1285;61271;-84
2023/01/12 05:01:57;;;;;;;;;;;;;;;21.09;31.52;101401.89;105900;1285;59922;-83
2023/01/12 05:04:24;;;;;;;;;;;;;;;21.10;31.61;101408.64;105980;1285;72578;-83
2023/01/12 05:06:50;;;;;;;;;;;;;;;21.08;31.48;101410.67;105882;1285;74411;-84
2023/01/12 05:12:01;;;;;;;;;;;;;;;21.06;31.49;101412.25;105920;1284;61251;-84
2023/01/12 05:14:28;;;;;;;;;;;;;;;21.04;31.43;101418.43;105902;1285;59973;-83
2023/01/12 05:16:54;;;;;;;;;;;;;;;21.02;31.39;101421.48;105896;1284;61286;-84
2023/01/12 05:19:19;;;;;;;;;;;;;;;20.99;31.32;101418.79;105910;1284;61207;-85
2023/01/12 05:21:45;;;;;;;;;;;;;;;20.96;31.33;101425.23;105914;1285;61251;-85
2023/01/12 05:24:10;;;;;;;;;;;;;;;20.94;31.25;101420.52;105964;1285;61295;-84
2023/01/12 05:26:36;;;;;;;;;;;;;;;20.91;31.12;101422.08;105734;1284;61275;-83
2023/01/12 05:29:01;;;;;;;;;;;;;;;20.88;31.36;101430.52;105983;1285;73894;-84
2023/01/12 05:31:27;;;;;;;;;;;;;;;20.85;31.17;101435.89;105938;1285;61424;-84
2023/01/12 05:33:52;;;;;;;;;;;;;;;20.80;31.29;101435.13;105746;1285;61310;-84
2023/01/12 05:36:19;;;;;;;;;;;;;;;20.76;31.19;101443.02;105712;1287;59941;-83
2023/01/12 05:38:46;;;;;;;;;;;;;;;20.74;31.27;101442.81;105903;1285;61145;-84
2023/01/12 05:41:14;;;;;;;;;;;;;;;20.73;31.23;101449.16;106046;1285;61305;-83
2023/01/12 05:43:49;;;;;;;;;;;;;;;20.71;31.04;101446.58;106061;1285;61204;-84
2023/01/12 05:46:15;;;;;;;;;;;;;;;20.70;31.00;101451.63;106069;1284;73472;-84
2023/01/12 05:48:40;;;;;;;;;;;;;;;20.68;31.07;101454.58;105922;1284;61264;-84
2023/01/12 05:51:06;;;;;;;;;;;;;;;20.66;30.95;101455.40;105931;1288;60480;-84
2023/01/12 05:53:32;;;;;;;;;;;;;;;20.63;31.08;101455.23;106130;1284;61130;-84
2023/01/12 05:55:57;;;;;;;;;;;;;;;20.61;31.11;101448.92;105981;1285;61288;-84
2023/01/12 05:58:23;;;;;;;;;;;;;;;20.57;31.17;101447.70;106165;1284;61081;-84
2023/01/12 06:00:48;;;;;;;;;;;;;;;20.53;31.18;101448.13;105984;1285;75501;-83
2023/01/12 06:03:14;;;;;;;;;;;;;;;20.48;31.11;101454.85;106047;1284;61229;-84
2023/01/12 06:05:39;;;;;;;;;;;;;;;20.45;31.25;101462.17;105951;1285;60985;-83
2023/01/12 06:08:05;;;;;;;;;;;;;;;20.42;31.27;101465.74;106018;1284;61369;-83
2023/01/12 06:10:33;;;;;;;;;;;;;;;20.39;31.37;101463.58;106011;1285;61259;-83
2023/01/12 06:15:43;;;;;;;;;;;;;;;20.37;31.59;101458.73;105965;1283;60842;-82
2023/01/12 06:18:09;;;;;;;;;;;;;;;20.39;31.55;101456.28;106008;1284;61229;-82
2023/01/12 06:20:34;;;;;;;;;;;;;;;20.41;31.56;101453.11;105985;1286;61291;-82
2023/01/12 06:23:01;;;;;;;;;;;;;;;20.45;31.70;101443.42;105894;1285;61395;-83
2023/01/12 06:25:28;;;;;;;;;;;;;;;20.48;31.71;101445.06;105954;1285;61339;-83
2023/01/12 06:27:55;;;;;;;;;;;;;;;20.51;31.90;101451.45;105993;1285;59572;-84
2023/01/12 06:30:21;;;;;;;;;;;;;;;20.54;32.03;101462.03;105947;1285;61321;-83
2023/01/12 06:32:46;;;;;;;;;;;;;;;20.56;32.01;101465.64;105885;1287;60457;-83
2023/01/12 06:35:12;;;;;;;;;;;;;;;20.59;31.95;101455.28;106052;1285;61214;-83
2023/01/12 06:37:37;;;;;;;;;;;;;;;20.62;31.99;101452.64;105975;1284;61065;-83
2023/01/12 06:40:03;;;;;;;;;;;;;;;20.64;32.19;101458.40;105925;1287;60398;-83
2023/01/12 06:42:30;;;;;;;;;;;;;;;20.67;32.25;101461.43;105921;1285;61196;-83
2023/01/12 06:44:56;;;;;;;;;;;;;;;20.70;32.14;101460.02;105934;1287;61143;-83
2023/01/12 06:47:21;;;;;;;;;;;;;;;20.73;32.27;101466.45;106139;1284;61954;-83
2023/01/12 06:49:50;;;;;;;;;;;;;;;20.76;32.31;101475.04;106056;1285;59480;-84
2023/01/12 06:52:17;;;;;;;;;;;;;;;20.79;32.47;101474.02;105812;1285;60052;-84
2023/01/12 06:54:43;;;;;;;;;;;;;;;20.82;32.48;101474.91;106381;1285;76345;-84
2023/01/12 06:57:08;;;;;;;;;;;;;;;20.84;32.37;101483.20;106297;1285;59374;-84
2023/01/12 06:59:34;;;;;;;;;;;;;;;20.86;32.53;101487.38;105971;1287;62748;-84
2023/01/12 07:01:59;;;;;;;;;;;;;;;20.86;32.62;101483.08;105983;1285;61320;-85
2023/01/12 07:04:25;;;;;;;;;;;;;;;20.85;32.79;101484.94;105934;1288;61268;-85
2023/01/12 07:06:54;;;;;;;;;;;;;;;20.84;32.78;101486.98;106038;1285;74486;-85
2023/01/12 07:09:20;;;;;;;;;;;;;;;20.84;32.95;101481.77;106001;1285;61130;-83
2023/01/12 07:11:45;;;;;;;;;;;;;;;20.85;32.78;101481.14;105847;1285;61210;-83
2023/01/12 07:14:11;;;;;;;;;;;;;;;20.87;32.93;101481.56;105741;1285;59468;-83
2023/01/12 07:16:36;;;;;;;;;;;;;;;20.90;32.90;101482.09;105937;1285;59575;-83
2023/01/12 07:19:02;;;;;;;;;;;;;;;20.91;32.86;101480.95;105772;1285;61200;-83
2023/01/12 07:21:27;;;;;;;;;;;;;;;20.93;32.88;101491.42;105785;1285;62130;-83
2023/01/12 07:23:53;;;;;;;;;;;;;;;20.95;32.92;101494.01;105951;1285;60982;-83
2023/01/12 07:26:18;;;;;;;;;;;;;;;20.97;33.02;101496.95;105887;1285;61313;-83
2023/01/12 07:28:44;;;;;;;;;;;;;;;20.98;33.09;101500.09;105969;1284;59642;-83
2023/01/12 07:31:12;;;;;;;;;;;;;;;20.99;33.13;101506.62;105938;1285;61760;-84
2023/01/12 07:33:37;;;;;;;;;;;;;;;21.01;33.03;101508.33;106033;1284;59356;-84
2023/01/12 07:36:03;;;;;;;;;;;;;;;21.01;33.20;101506.70;105966;1283;59711;-83
2023/01/12 07:38:29;;;;;;;;;;;;;;;21.02;33.08;101506.29;105980;1285;61371;-84
2023/01/12 07:40:59;;;;;;;;;;;;;;;21.02;33.15;101512.52;105764;1285;76807;-83
2023/01/12 07:43:24;;;;;;;;;;;;;;;21.03;33.14;101517.13;106165;1285;59810;-83
2023/01/12 07:45:54;;;;;;;;;;;;;;;21.04;33.12;101519.96;106062;1284;59311;-83
2023/01/12 07:48:22;;;;;;;;;;;;;;;21.04;33.32;101523.13;105899;1287;73906;-83
2023/01/12 07:50:47;;;;;;;;;;;;;;;21.05;33.18;101525.23;106010;1284;73505;-83
2023/01/12 07:53:13;;;;;;;;;;;;;;;21.07;33.33;101521.02;105992;1285;60468;-85
2023/01/12 07:55:42;;;;;;;;;;;;;;;21.07;33.38;101519.22;106191;1284;70738;-84
2023/01/12 07:58:08;;;;;;;;;;;;;;;21.05;33.47;101524.70;106488;1284;72317;-85
2023/01/12 08:00:34;;;;;;;;;;;;;;;21.04;33.74;101517.94;106189;1285;59802;-85
2023/01/12 08:03:07;;;;;;;;;;;;;;;21.03;33.88;101518.41;105985;1285;59897;-84
2023/01/12 08:05:33;;;;;;;;;;;;;;;21.01;34.07;101521.52;105951;1285;62093;-85
2023/01/12 08:07:59;;;;;;;;;;;;;;;21.02;34.17;101521.88;105901;1283;61319;-83
2023/01/12 08:10:25;;;;;;;;;;;;;;;21.00;34.34;101526.79;105767;1290;61160;-85
2023/01/12 08:12:50;;;;;;;;;;;;;;;21.00;34.25;101526.08;105965;1285;62136;-83
2023/01/12 08:15:16;;;;;;;;;;;;;;;21.01;34.25;101526.77;105944;1289;60021;-84
2023/01/12 08:17:44;;;;;;;;;;;;;;;21.02;34.39;101529.16;105990;1284;61317;-83
2023/01/12 08:20:21;;;;;;;;;;;;;;;21.05;34.37;101533.11;105943;1288;60813;-83
2023/01/12 08:22:47;;;;;;;;;;;;;;;21.07;34.51;101533.86;105982;1285;60610;-84
2023/01/12 08:25:19;;;;;;;;;;;;;;;21.10;34.33;101534.77;105978;1284;61234;-83
2023/01/12 08:27:46;;;;;;;;;;;;;;;21.12;34.42;101528.76;104834;1284;1657620;-83
2023/01/12 08:30:14;;;;;;;;;;;;;;;21.14;34.36;101527.21;105729;1285;60452;-83
2023/01/12 08:32:40;;;;;;;;;;;;;;;21.16;34.30;101522.83;105922;1285;61321;-83
2023/01/12 08:35:06;;;;;;;;;;;;;;;21.17;34.31;101525.23;105939;1284;59478;-83
2023/01/12 08:37:31;;;;;;;;;;;;;;;21.19;34.25;101525.63;105892;1285;59673;-83
2023/01/12 08:39:57;;;;;;;;;;;;;;;21.20;34.32;101528.12;105894;1285;61336;-84
2023/01/12 08:42:24;;;;;;;;;;;;;;;21.21;34.37;101531.61;105709;1284;59993;-83
2023/01/12 08:44:49;;;;;;;;;;;;;;;21.22;34.32;101535.12;105950;1285;61110;-84
2023/01/12 08:47:17;;;;;;;;;;;;;;;21.24;34.33;101531.08;106039;1285;60078;-84
2023/01/12 08:49:45;;;;;;;;;;;;;;;21.25;34.34;101526.02;105976;1285;59714;-84
2023/01/12 08:52:11;;;;;;;;;;;;;;;21.26;34.43;101526.66;105932;1284;61283;-84
2023/01/12 08:54:36;;;;;;;;;;;;;;;21.28;34.42;101530.86;106049;1284;61163;-83
2023/01/12 08:57:21;;;;;;;;;;;;;;;;;;;;;
2023/01/12 08:59:56;;;;;;;;;;;;;;;21.30;34.57;101532.70;106006;1285;74391;-84
2023/01/12 09:02:24;;;;;;;;;;;;;;;21.32;34.60;101532.98;105914;1285;62597;-84
2023/01/12 09:04:50;;;;;;;;;;;;;;;21.33;34.46;101531.64;105924;1285;61131;-84
2023/01/12 09:07:16;;;;;;;;;;;;;;;21.34;34.59;101527.83;105993;1285;61337;-84
2023/01/12 09:09:45;;;;;;;;;;;;;;;21.33;34.57;101530.73;105928;1285;74378;-83
2023/01/12 09:12:10;;;;;;;;;;;;;;;21.30;34.65;101527.34;105859;1284;61116;-83
2023/01/12 09:14:37;;;;;;;;;;;;;;;21.28;34.59;101526.72;105952;1284;59735;-85
2023/01/12 09:17:03;;;;;;;;;;;;;;;21.28;34.65;101522.80;105962;1289;59246;-84
2023/01/12 09:19:28;;;;;;;;;;;;;;;21.28;34.77;101523.89;105969;1285;59647;-84
2023/01/12 09:21:54;;;;;;;;;;;;;;;21.28;34.68;101523.00;105879;1285;61299;-81
2023/01/12 09:24:19;;;;;;;;;;;;;;;21.28;34.59;101524.23;106080;1285;61222;-83
2023/01/12 09:26:45;;;;;;;;;;;;;;;21.29;34.68;101525.61;106015;1284;61299;-84
2023/01/12 09:29:11;;;;;;;;;;;;;;;21.29;34.60;101526.00;105997;1284;61282;-83
2023/01/12 09:31:36;;;;;;;;;;;;;;;21.29;34.57;101527.98;105933;1285;61036;-83
2023/01/12 09:34:02;;;;;;;;;;;;;;;21.28;34.52;101526.73;105906;1285;61770;-83
2023/01/12 09:36:29;;;;;;;;;;;;;;;21.28;34.35;101523.89;105997;1284;61259;-83
2023/01/12 09:38:55;;;;;;;;;;;;;;;21.27;34.63;101520.17;106002;1284;61231;-83
2023/01/12 09:47:29;;;;;;;;;;;;;;;21.25;34.44;101514.21;105971;1285;60029;-83
2023/01/12 09:50:14;;;;;;;;;;;;;;;21.25;34.40;101508.86;105579;1285;73695;-84
2023/01/12 09:52:43;;;;;;;;;;;;;;;21.24;34.39;101502.45;105997;1285;75558;-83
2023/01/12 09:55:11;;;;;;;;;;;;;;;21.24;34.30;101495.46;105895;1285;61271;-83
2023/01/12 09:57:46;;;;;;;;;;;;;;;21.25;34.44;101493.41;105986;1284;61358;-85
2023/01/12 10:00:12;;;;;;;;;;;;;;;21.25;34.34;101493.08;105963;1285;72557;-85
2023/01/12 10:02:38;;;;;;;;;;;;;;;21.20;34.41;101497.34;105939;1285;61202;-85
2023/01/12 10:05:06;;;;;;;;;;;;;;;21.07;34.44;101495.40;105799;1285;59945;-83
2023/01/12 10:07:32;;;;;;;;;;;;;;;20.83;34.31;101489.87;105909;1285;60770;-85
2023/01/12 10:09:58;;;;;;;;;;;;;;;20.66;34.40;101488.89;106049;1288;59729;-84
2023/01/12 10:12:43;;;;;;;;;;;;;;;20.59;34.69;101485.51;105948;1285;59373;-83
2023/01/12 10:15:25;;;;;;;;;;;;;;;20.58;34.64;101486.64;105949;1285;60248;-83
2023/01/12 10:17:59;;;;;;;;;;;;;;;20.60;34.67;101489.92;106114;1285;61334;-83
2023/01/12 10:20:38;;;;;;;;;;;;;;;20.62;34.54;101487.13;106042;1285;74296;-84
2023/01/12 10:23:10;;;;;;;;;;;;;;;20.63;34.70;101488.13;105999;1284;74219;-85
2023/01/12 10:25:35;;;;;;;;;;;;;;;20.65;34.86;101489.48;105926;1285;60142;-83
2023/01/12 10:28:28;;;;;;;;;;;;;;;20.67;34.66;101487.39;106048;1285;61038;-82
2023/01/12 10:30:55;;;;;;;;;;;;;;;20.68;34.67;101480.17;106277;1285;72833;-83
2023/01/12 10:33:20;;;;;;;;;;;;;;;20.69;34.73;101472.08;105947;1285;61285;-84
2023/01/12 10:36:06;;;;;;;;;;;;;;;20.71;34.76;101466.63;106056;1284;59919;-83
2023/01/12 10:38:36;;;;;;;;;;;;;;;20.73;34.87;101463.61;106025;1284;60485;-84
2023/01/12 10:41:13;;;;;;;;;;;;;;;20.74;35.03;101458.54;106174;1280;72510;-83
2023/01/12 10:43:40;;;;;;;;;;;;;;;20.78;35.11;101451.72;106051;1288;75475;-83
2023/01/12 10:46:11;;;;;;;;;;;;;;;20.79;35.12;101449.69;106061;1286;59272;-82
2023/01/12 10:48:42;;;;;;;;;;;;;;;20.80;35.28;101451.03;105992;1285;61964;-83
2023/01/12 10:51:24;;;;;;;;;;;;;;;20.85;35.52;101456.10;105918;1286;73390;-82
2023/01/12 10:54:03;;;;;;;;;;;;;;;20.88;35.41;101460.26;105995;1283;74301;-82
2023/01/12 10:56:36;;;;;;;;;;;;;;;20.90;35.56;101453.97;106028;1288;59640;-82
2023/01/12 10:59:02;;;;;;;;;;;;;;;20.91;35.47;101455.23;106098;1286;60054;-83
2023/01/12 11:01:46;;;;;;;;;;;;;;;20.92;35.64;101456.42;106566;1286;59085;-84
2023/01/12 11:04:13;;;;;;;;;;;;;;;20.87;35.46;101445.95;106341;1285;74471;-84
2023/01/12 11:06:40;;;;;;;;;;;;;;;20.69;35.59;101440.92;106473;1286;60034;-83
2023/01/12 11:09:42;;;;;;;;;;;;;;;20.51;35.53;101445.40;106211;1286;60486;-84
2023/01/12 11:12:16;;;;;;;;;;;;;;;20.20;35.50;101441.63;105505;1292;72471;-85
2023/01/12 11:14:54;;;;;;;;;;;;;;;19.99;35.61;101440.48;105399;1293;74365;-83
2023/01/12 11:17:24;;;;;;;;;;;;;;;19.82;35.85;101440.90;105405;1296;60682;-82
2023/01/12 11:19:50;;;;;;;;;;;;;;;19.79;35.86;101442.11;105373;1291;61105;-82
2023/01/12 11:22:17;;;;;;;;;;;;;;;19.82;35.92;101446.08;105329;1297;59472;-83
2023/01/12 11:24:44;;;;;;;;;;;;;;;19.88;35.84;101445.20;105342;1297;61263;-83
2023/01/12 11:27:14;;;;;;;;;;;;;;;19.95;35.76;101445.90;105332;1293;61136;-83
2023/01/12 11:29:44;;;;;;;;;;;;;;;20.02;35.80;101441.96;105331;1297;60499;-82
2023/01/12 11:32:20;;;;;;;;;;;;;;;20.08;35.69;101441.05;105316;1292;72710;-83
2023/01/12 11:34:56;;;;;;;;;;;;;;;20.16;35.75;101440.44;105435;1292;75368;-83
2023/01/12 11:37:22;;;;;;;;;;;;;;;20.22;35.79;101442.92;105654;1292;61355;-83
2023/01/12 11:39:51;;;;;;;;;;;;;;;20.29;35.67;101443.09;105273;1293;61249;-83
2023/01/12 11:45:07;;;;;;;;;;;;;;;20.40;35.75;101438.50;105947;1291;74719;-84
2023/01/12 11:47:35;;;;;;;;;;;;;;;20.44;35.60;101438.66;105964;1286;61077;-83
2023/01/12 11:50:07;;;;;;;;;;;;;;;20.46;35.70;101439.59;106067;1288;61039;-84
2023/01/12 11:52:33;;;;;;;;;;;;;;;20.50;35.72;101437.20;106050;1285;73628;-83
2023/01/12 11:54:59;;;;;;;;;;;;;;;20.53;35.61;101435.59;106089;1285;60048;-83
2023/01/12 11:57:44;;;;;;;;;;;;;;;20.54;35.76;101433.91;106130;1285;59165;-83
2023/01/12 12:00:16;;;;;;;;;;;;;;;20.55;35.56;101438.92;106003;1284;61048;-84
2023/01/12 12:03:00;;;;;;;;;;;;;;;20.47;35.63;101438.81;106198;1286;72532;-85
2023/01/12 12:05:43;;;;;;;;;;;;;;;20.33;35.65;101434.08;106126;1287;75021;-84
2023/01/12 12:08:15;;;;;;;;;;;;;;;20.14;35.56;101430.52;105961;1286;61240;-83
2023/01/12 12:10:51;;;;;;;;;;;;;;;19.99;35.58;101428.91;106054;1289;60468;-84
2023/01/12 12:13:25;;;;;;;;;;;;;;;19.92;35.81;101431.77;105960;1286;72531;-84
2023/01/12 12:16:10;;;;;;;;;;;;;;;19.91;35.75;101430.76;106057;1285;74457;-84
2023/01/12 12:19:08;;;;;;;;;;;;;;;19.85;35.82;101430.75;106032;1286;61095;-84
2023/01/12 12:21:33;;;;;;;;;;;;;;;19.74;35.73;101430.23;105771;1285;61225;-84
2023/01/12 12:24:15;;;;;;;;;;;;;;;19.68;35.71;101434.53;106134;1285;59839;-83
2023/01/12 12:26:42;;;;;;;;;;;;;;;19.66;35.88;101429.64;106084;1286;75506;-83
2023/01/12 12:29:17;;;;;;;;;;;;;;;19.64;35.94;101427.05;106004;1286;61193;-83
2023/01/12 12:32:01;;;;;;;;;;;;;;;19.60;35.79;101424.58;106027;1285;60338;-83
2023/01/12 12:34:42;;;;;;;;;;;;;;;19.58;35.97;101422.18;106076;1285;72111;-84
2023/01/12 12:37:29;;;;;;;;;;;;;;;19.58;35.88;101419.54;106100;1285;74676;-83
2023/01/12 12:39:56;;;;;;;;;;;;;;;19.57;35.85;101416.69;106106;1286;60088;-84
2023/01/12 12:45:41;;;;;;;;;;;;;;;19.63;35.77;101414.06;105950;1288;72762;-83
2023/01/12 12:48:15;;;;;;;;;;;;;;;19.65;35.84;101413.80;106094;1287;74998;-84
2023/01/12 12:50:40;;;;;;;;;;;;;;;19.68;35.84;101413.61;106133;1285;61148;-84
2023/01/12 12:53:11;;;;;;;;;;;;;;;19.69;35.74;101411.05;106151;1285;61390;-84
2023/01/12 12:55:37;;;;;;;;;;;;;;;19.61;35.34;101408.84;106170;1286;73693;-85
2023/01/12 12:58:04;;;;;;;;;;;;;;;19.50;35.33;101414.41;106168;1286;60940;-85
2023/01/12 13:00:39;;;;;;;;;;;;;;;19.38;35.28;101411.30;106014;1290;61250;-85
2023/01/12 13:03:05;;;;;;;;;;;;;;;19.28;35.26;101418.33;106201;1285;60368;-85
2023/01/12 13:05:38;;;;;;;;;;;;;;;19.11;35.16;101417.41;106014;1286;60040;-85